Time;durP1;ratioP1;P1;durP2;ratioP2;P2;SDS_P1;SDS_P2;PMS_P1;PMS_P2;Temp;Humidity;BMP_temperature;BMP_pressure;BME280_temperature;BME280_humidity;BME280_pressure;Samples;Min_cycle;Max_cycle;Signal;HPM_P1;HPM_P2
2022/05/03 00:01:36;;;;;;;;;;;;;;;;;;4979842;28;20559;-68
2022/05/03 00:04:02;;;;;;;;;;;;;;;;;;4972695;28;19935;-68
2022/05/03 00:06:28;;;;;;;;;;;;;;;;;;4980715;28;20279;-68
2022/05/03 00:08:54;;;;;;;;;;;;;;;;;;4958942;28;19964;-68
2022/05/03 00:11:20;;;;;;;;;;;;;;;;;;4982854;28;20418;-68
2022/05/03 00:13:46;;;;;;;;;;;;;;;;;;4983200;28;19986;-67
2022/05/03 00:16:12;;;;;;;;;;;;;;;;;;4986143;28;19914;-68
2022/05/03 00:18:38;;;;;;;;;;;;;;;;;;4980421;28;20359;-68
2022/05/03 00:21:04;;;;;;;;;;;;;;;;;;4981772;28;19916;-68
2022/05/03 00:23:30;;;;;;;;;;;;;;;;;;4982629;28;19959;-68
2022/05/03 00:25:56;;;;;;;;;;;;;;;;;;4965383;28;19914;-68
2022/05/03 00:28:22;;;;;;;;;;;;;;;;;;4989880;28;20015;-68
2022/05/03 00:30:49;;;;;;;;;;;;;;;;;;4988320;28;20299;-68
2022/05/03 00:33:15;;;;;;;;;;;;;;;;;;4966576;28;20359;-68
2022/05/03 00:35:41;;;;;;;;;;;;;;;;;;4973573;28;19952;-68
2022/05/03 00:38:07;;;;;;;;;;;;;;;;;;4984311;28;19972;-68
2022/05/03 00:40:33;;;;;;;;;;;;;;;;;;4974948;28;19919;-66
2022/05/03 00:42:59;;;;;;;;;;;;;;;;;;4977999;28;19917;-68
2022/05/03 00:45:25;;;;;;;;;;;;;;;;;;4978442;28;20322;-66
2022/05/03 00:47:51;;;;;;;;;;;;;;;;;;4981691;28;22134;-67
2022/05/03 00:50:17;;;;;;;;;;;;;;;;;;4973931;28;19913;-66
2022/05/03 00:52:43;;;;;;;;;;;;;;;;;;4964648;28;19920;-67
2022/05/03 00:55:09;;;;;;;;;;;;;;;;;;4971464;28;20458;-67
2022/05/03 00:57:35;;;;;;;;;;;;;;;;;;4974584;28;20153;-66
2022/05/03 01:00:01;;;;;;;;;;;;;;;;;;4979091;28;19917;-66
2022/05/03 01:02:27;;;;;;;;;;;;;;;;;;4977066;28;20292;-66
2022/05/03 01:04:53;;;;;;;;;;;;;;;;;;4955263;28;19940;-66
2022/05/03 01:07:19;;;;;;;;;;;;;;;;;;4976190;28;19917;-67
2022/05/03 01:09:45;;;;;;;;;;;;;;;;;;4980884;28;20415;-66
2022/05/03 01:12:11;;;;;;;;;;;;;;;;;;4993259;28;19913;-67
2022/05/03 01:14:37;;;;;;;;;;;;;;;;;;4964103;28;19936;-66
2022/05/03 01:17:03;;;;;;;;;;;;;;;;;;4973124;28;19914;-67
2022/05/03 01:19:29;;;;;;;;;;;;;;;;;;4974388;28;19956;-66
2022/05/03 01:21:55;;;;;;;;;;;;;;;;;;4970960;28;20023;-67
2022/05/03 01:24:21;;;;;;;;;;;;;;;;;;4980936;28;19924;-67
2022/05/03 01:26:47;;;;;;;;;;;;;;;;;;4979873;28;19909;-68
2022/05/03 01:29:13;;;;;;;;;;;;;;;;;;4986780;28;19913;-66
2022/05/03 01:31:39;;;;;;;;;;;;;;;;;;4979083;28;19920;-68
2022/05/03 01:34:05;;;;;;;;;;;;;;;;;;4983165;28;20415;-67
2022/05/03 01:36:31;;;;;;;;;;;;;;;;;;4977016;28;19913;-67
2022/05/03 01:38:57;;;;;;;;;;;;;;;;;;4982948;28;20367;-66
2022/05/03 01:41:23;;;;;;;;;;;;;;;;;;4988605;28;20206;-67
2022/05/03 01:43:49;;;;;;;;;;;;;;;;;;4977663;28;19913;-67
2022/05/03 01:46:15;;;;;;;;;;;;;;;;;;4979328;28;20261;-67
2022/05/03 01:51:25;;;;;;;;;;;;;;;;;;4976575;28;19920;-67
2022/05/03 01:53:51;;;;;;;;;;;;;;;;;;4976005;28;20499;-67
2022/05/03 01:56:17;;;;;;;;;;;;;;;;;;4980818;28;19913;-66
2022/05/03 01:58:43;;;;;;;;;;;;;;;;;;4974942;28;19941;-67
2022/05/03 02:01:09;;;;;;;;;;;;;;;;;;4989469;28;19913;-68
2022/05/03 02:03:35;;;;;;;;;;;;;;;;;;4976266;28;19921;-67
2022/05/03 02:06:01;;;;;;;;;;;;;;;;;;4965779;28;19988;-67
2022/05/03 02:08:27;;;;;;;;;;;;;;;;;;4980010;28;19960;-66
2022/05/03 02:10:53;;;;;;;;;;;;;;;;;;4975911;28;20765;-66
2022/05/03 02:13:19;;;;;;;;;;;;;;;;;;4978208;28;20132;-68
2022/05/03 02:15:45;;;;;;;;;;;;;;;;;;4961394;28;19939;-68
2022/05/03 02:18:11;;;;;;;;;;;;;;;;;;4980901;28;20057;-68
2022/05/03 02:20:37;;;;;;;;;;;;;;;;;;4980857;28;19975;-67
2022/05/03 02:23:03;;;;;;;;;;;;;;;;;;4979528;28;20434;-67
2022/05/03 02:25:29;;;;;;;;;;;;;;;;;;4979945;28;19920;-67
2022/05/03 02:27:55;;;;;;;;;;;;;;;;;;4975034;28;19920;-68
2022/05/03 02:30:21;;;;;;;;;;;;;;;;;;4982026;28;19913;-67
2022/05/03 02:32:47;;;;;;;;;;;;;;;;;;4977485;28;19963;-67
2022/05/03 02:35:13;;;;;;;;;;;;;;;;;;4981083;28;19910;-67
2022/05/03 02:37:39;;;;;;;;;;;;;;;;;;4980510;28;19975;-68
2022/05/03 02:40:07;;;;;;;;;;;;;;;;;;4981296;28;19957;-66
2022/05/03 02:42:33;;;;;;;;;;;;;;;;;;4980399;28;19918;-67
2022/05/03 02:44:59;;;;;;;;;;;;;;;;;;4977365;28;19941;-66
2022/05/03 02:47:25;;;;;;;;;;;;;;;;;;4976159;28;20431;-67
2022/05/03 02:49:51;;;;;;;;;;;;;;;;;;4976779;28;21869;-68
2022/05/03 02:52:17;;;;;;;;;;;;;;;;;;4983009;28;19919;-68
2022/05/03 02:54:43;;;;;;;;;;;;;;;;;;4974363;28;19913;-68
2022/05/03 02:57:09;;;;;;;;;;;;;;;;;;4977277;28;19917;-68
2022/05/03 03:02:19;;;;;;;;;;;;;;;;;;4978824;28;20012;-68
2022/05/03 03:04:45;;;;;;;;;;;;;;;;;;4970681;28;19944;-68
2022/05/03 03:07:11;;;;;;;;;;;;;;;;;;4974132;28;19914;-67
2022/05/03 03:09:37;;;;;;;;;;;;;;;;;;4971326;28;19914;-67
2022/05/03 03:12:03;;;;;;;;;;;;;;;;;;4978293;28;20381;-67
2022/05/03 03:14:29;;;;;;;;;;;;;;;;;;4978910;28;20264;-68
2022/05/03 03:16:55;;;;;;;;;;;;;;;;;;4977467;28;20190;-67
2022/05/03 03:19:21;;;;;;;;;;;;;;;;;;4983353;28;19917;-68
2022/05/03 03:21:47;;;;;;;;;;;;;;;;;;4978566;28;19918;-68
2022/05/03 03:24:13;;;;;;;;;;;;;;;;;;4983289;28;19919;-67
2022/05/03 03:26:39;;;;;;;;;;;;;;;;;;4972884;28;19917;-67
2022/05/03 03:29:05;;;;;;;;;;;;;;;;;;4981434;28;20167;-68
2022/05/03 03:31:31;;;;;;;;;;;;;;;;;;4984267;28;19913;-68
2022/05/03 03:33:57;;;;;;;;;;;;;;;;;;4964422;28;19913;-67
2022/05/03 03:36:23;;;;;;;;;;;;;;;;;;4980510;28;19920;-69
2022/05/03 03:38:49;;;;;;;;;;;;;;;;;;4964001;28;20335;-68
2022/05/03 03:41:15;;;;;;;;;;;;;;;;;;4971537;28;20392;-67
2022/05/03 03:43:41;;;;;;;;;;;;;;;;;;4970807;28;19924;-67
2022/05/03 03:46:07;;;;;;;;;;;;;;;;;;4983217;28;19921;-67
2022/05/03 03:48:33;;;;;;;;;;;;;;;;;;4977663;28;19978;-68
2022/05/03 03:50:59;;;;;;;;;;;;;;;;;;4981658;28;20016;-67
2022/05/03 03:53:25;;;;;;;;;;;;;;;;;;4989748;28;19913;-68
2022/05/03 03:55:51;;;;;;;;;;;;;;;;;;4983820;28;19965;-68
2022/05/03 03:58:17;;;;;;;;;;;;;;;;;;4971082;28;20443;-68
2022/05/03 04:00:43;;;;;;;;;;;;;;;;;;4978769;28;19992;-66
2022/05/03 04:03:09;;;;;;;;;;;;;;;;;;4972750;28;20416;-66
2022/05/03 04:05:35;;;;;;;;;;;;;;;;;;4986349;28;19914;-67
2022/05/03 04:08:01;;;;;;;;;;;;;;;;;;4978122;28;19975;-68
2022/05/03 04:10:27;;;;;;;;;;;;;;;;;;4986225;28;20312;-66
2022/05/03 04:12:53;;;;;;;;;;;;;;;;;;4979734;28;19995;-65
2022/05/03 04:15:19;;;;;;;;;;;;;;;;;;4984937;28;19921;-67
2022/05/03 04:17:45;;;;;;;;;;;;;;;;;;4986821;28;20000;-67
2022/05/03 04:20:10;;;;;;;;;;;;;;;;;;4984291;28;20445;-66
2022/05/03 04:22:36;;;;;;;;;;;;;;;;;;4981333;28;20035;-66
2022/05/03 04:25:03;;;;;;;;;;;;;;;;;;4970002;28;19917;-66
2022/05/03 04:27:29;;;;;;;;;;;;;;;;;;4986880;28;20439;-66
2022/05/03 04:29:56;;;;;;;;;;;;;;;;;;4978473;28;19920;-66
2022/05/03 04:32:22;;;;;;;;;;;;;;;;;;4987754;28;19964;-66
2022/05/03 04:34:48;;;;;;;;;;;;;;;;;;4977967;28;20032;-68
2022/05/03 04:37:14;;;;;;;;;;;;;;;;;;4975755;28;19933;-66
2022/05/03 04:39:40;;;;;;;;;;;;;;;;;;4977552;28;20286;-66
2022/05/03 04:42:06;;;;;;;;;;;;;;;;;;4986884;28;19925;-66
2022/05/03 04:44:33;;;;;;;;;;;;;;;;;;4979780;28;20378;-66
2022/05/03 04:46:58;;;;;;;;;;;;;;;;;;4984947;28;19918;-68
2022/05/03 04:49:24;;;;;;;;;;;;;;;;;;4971791;28;19917;-66
2022/05/03 04:51:50;;;;;;;;;;;;;;;;;;4982244;28;23705;-65
2022/05/03 04:54:16;;;;;;;;;;;;;;;;;;4985279;28;19920;-68
2022/05/03 04:56:42;;;;;;;;;;;;;;;;;;4972739;28;19910;-68
2022/05/03 04:59:08;;;;;;;;;;;;;;;;;;4982830;28;19913;-67
2022/05/03 05:01:34;;;;;;;;;;;;;;;;;;4980243;28;20072;-67
2022/05/03 05:04:00;;;;;;;;;;;;;;;;;;4985740;28;19913;-67
2022/05/03 05:06:26;;;;;;;;;;;;;;;;;;4984927;28;20282;-67
2022/05/03 05:08:52;;;;;;;;;;;;;;;;;;4988945;28;19913;-67
2022/05/03 05:11:18;;;;;;;;;;;;;;;;;;4989822;28;20383;-67
2022/05/03 05:13:44;;;;;;;;;;;;;;;;;;4983070;28;19948;-67
2022/05/03 05:16:10;;;;;;;;;;;;;;;;;;4978484;28;19921;-67
2022/05/03 05:18:36;;;;;;;;;;;;;;;;;;4982712;28;19917;-66
2022/05/03 05:21:02;;;;;;;;;;;;;;;;;;4980339;28;19964;-66
2022/05/03 05:23:28;;;;;;;;;;;;;;;;;;4986635;28;19994;-66
2022/05/03 05:25:54;;;;;;;;;;;;;;;;;;4979211;28;20016;-66
2022/05/03 05:28:20;;;;;;;;;;;;;;;;;;4983424;28;20511;-68
2022/05/03 05:30:46;;;;;;;;;;;;;;;;;;4984580;28;20015;-67
2022/05/03 05:33:12;;;;;;;;;;;;;;;;;;4983818;28;20371;-68
2022/05/03 05:35:40;;;;;;;;;;;;;;;;;;4958091;28;19913;-66
2022/05/03 05:38:06;;;;;;;;;;;;;;;;;;4982887;28;19920;-66
2022/05/03 05:40:32;;;;;;;;;;;;;;;;;;4975143;28;19968;-67
2022/05/03 05:42:57;;;;;;;;;;;;;;;;;;4963233;28;19921;-69
2022/05/03 05:45:23;;;;;;;;;;;;;;;;;;4980066;28;20438;-67
2022/05/03 05:47:49;;;;;;;;;;;;;;;;;;4985988;28;20539;-66
2022/05/03 05:50:15;;;;;;;;;;;;;;;;;;4986477;28;19917;-67
2022/05/03 05:55:26;;;;;;;;;;;;;;;;;;4977179;28;19991;-67
2022/05/03 05:57:52;;;;;;;;;;;;;;;;;;4980718;28;20933;-66
2022/05/03 06:00:18;;;;;;;;;;;;;;;;;;4988501;28;19917;-67
2022/05/03 06:02:44;;;;;;;;;;;;;;;;;;4967108;28;19976;-68
2022/05/03 06:05:10;;;;;;;;;;;;;;;;;;4992349;28;19913;-66
2022/05/03 06:07:36;;;;;;;;;;;;;;;;;;4984142;28;19920;-66
2022/05/03 06:10:02;;;;;;;;;;;;;;;;;;4976151;28;19921;-67
2022/05/03 06:12:28;;;;;;;;;;;;;;;;;;4984381;28;19912;-66
2022/05/03 06:14:54;;;;;;;;;;;;;;;;;;4979676;28;20458;-67
2022/05/03 06:17:20;;;;;;;;;;;;;;;;;;4983965;28;20330;-67
2022/05/03 06:19:46;;;;;;;;;;;;;;;;;;4988166;28;19917;-67
2022/05/03 06:22:13;;;;;;;;;;;;;;;;;;4993007;28;20068;-67
2022/05/03 06:24:40;;;;;;;;;;;;;;;;;;4988602;28;19921;-67
2022/05/03 06:27:05;;;;;;;;;;;;;;;;;;4980027;28;20281;-67
2022/05/03 06:29:32;;;;;;;;;;;;;;;;;;4983285;28;19913;-67
2022/05/03 06:31:59;;;;;;;;;;;;;;;;;;4987113;28;19914;-67
2022/05/03 06:34:25;;;;;;;;;;;;;;;;;;4968051;28;20806;-66
2022/05/03 06:36:51;;;;;;;;;;;;;;;;;;4980584;28;20336;-68
2022/05/03 06:39:17;;;;;;;;;;;;;;;;;;4987177;28;20351;-68
2022/05/03 06:41:43;;;;;;;;;;;;;;;;;;4980362;28;20260;-67
2022/05/03 06:44:09;;;;;;;;;;;;;;;;;;4982773;28;19913;-67
2022/05/03 06:46:35;;;;;;;;;;;;;;;;;;4978593;28;19925;-67
2022/05/03 06:49:01;;;;;;;;;;;;;;;;;;4979522;28;19921;-68
2022/05/03 06:51:27;;;;;;;;;;;;;;;;;;4979536;28;20391;-68
2022/05/03 06:53:53;;;;;;;;;;;;;;;;;;4932991;28;20784;-67
2022/05/03 06:56:19;;;;;;;;;;;;;;;;;;4962021;28;19913;-67
2022/05/03 06:58:45;;;;;;;;;;;;;;;;;;4976925;28;19936;-67
2022/05/03 07:01:11;;;;;;;;;;;;;;;;;;4970650;28;19921;-68
2022/05/03 07:03:37;;;;;;;;;;;;;;;;;;4969889;28;20430;-67
2022/05/03 07:06:04;;;;;;;;;;;;;;;;;;4973235;28;19985;-67
2022/05/03 07:08:30;;;;;;;;;;;;;;;;;;4973467;28;20430;-69
2022/05/03 07:10:56;;;;;;;;;;;;;;;;;;4953784;28;20504;-69
2022/05/03 07:13:25;;;;;;;;;;;;;;;;;;4978676;28;20020;-68
2022/05/03 07:15:51;;;;;;;;;;;;;;;;;;4971688;28;22307;-68
2022/05/03 07:23:47;;;;;;;;;;;;;;;;;;4975196;28;20335;-68
2022/05/03 07:26:12;;;;;;;;;;;;;;;;;;4981538;28;19951;-69
2022/05/03 07:28:39;;;;;;;;;;;;;;;;;;4969805;28;20032;-69
2022/05/03 07:31:05;;;;;;;;;;;;;;;;;;4931025;28;19950;-67
2022/05/03 07:33:31;;;;;;;;;;;;;;;;;;4926091;28;19913;-68
2022/05/03 07:35:57;;;;;;;;;;;;;;;;;;4934924;28;19921;-67
2022/05/03 07:38:23;;;;;;;;;;;;;;;;;;4935061;28;20723;-67
2022/05/03 07:40:49;;;;;;;;;;;;;;;;;;4936536;28;21061;-67
2022/05/03 07:43:15;;;;;;;;;;;;;;;;;;4935202;28;20415;-67
2022/05/03 07:45:41;;;;;;;;;;;;;;;;;;4926305;28;20343;-68
2022/05/03 07:48:07;;;;;;;;;;;;;;;;;;4944666;28;20345;-68
2022/05/03 07:50:33;;;;;;;;;;;;;;;;;;4936111;28;20351;-68
2022/05/03 07:52:59;;;;;;;;;;;;;;;;;;4938967;28;21152;-68
2022/05/03 07:55:25;;;;;;;;;;;;;;;;;;4937399;28;19913;-69
2022/05/03 07:57:51;;;;;;;;;;;;;;;;;;4914881;28;20526;-68
2022/05/03 08:00:17;;;;;;;;;;;;;;;;;;4936632;28;19941;-68
2022/05/03 08:02:43;;;;;;;;;;;;;;;;;;4930754;28;20411;-68
2022/05/03 08:05:09;;;;;;;;;;;;;;;;;;4930613;28;19960;-68
2022/05/03 08:07:35;;;;;;;;;;;;;;;;;;4968770;28;19917;-68
2022/05/03 08:10:01;;;;;;;;;;;;;;;;;;4960607;28;20004;-68
2022/05/03 08:12:28;;;;;;;;;;;;;;;;;;4979667;28;19913;-68
2022/05/03 08:14:55;;;;;;;;;;;;;;;;;;4978795;28;19985;-68
2022/05/03 08:17:21;;;;;;;;;;;;;;;;;;4976145;28;19932;-68
2022/05/03 08:19:47;;;;;;;;;;;;;;;;;;4975017;28;19921;-68
2022/05/03 08:22:13;;;;;;;;;;;;;;;;;;4975569;28;19918;-68
2022/05/03 08:24:39;;;;;;;;;;;;;;;;;;4973813;28;19918;-68
2022/05/03 08:27:05;;;;;;;;;;;;;;;;;;4974620;28;20379;-68
2022/05/03 08:29:31;;;;;;;;;;;;;;;;;;4975355;28;19913;-68
2022/05/03 08:31:57;;;;;;;;;;;;;;;;;;4976720;28;19910;-68
2022/05/03 08:34:23;;;;;;;;;;;;;;;;;;4982007;28;20271;-68
2022/05/03 08:42:19;;;;;;;;;;;;;;;;;;4976698;28;20723;-68
2022/05/03 08:44:45;;;;;;;;;;;;;;;;;;4970319;28;19914;-68
2022/05/03 08:47:11;;;;;;;;;;;;;;;;;;4980690;28;19968;-68
2022/05/03 08:49:37;;;;;;;;;;;;;;;;;;4973947;28;19948;-68
2022/05/03 08:52:03;;;;;;;;;;;;;;;;;;4974464;28;19971;-67
2022/05/03 08:54:29;;;;;;;;;;;;;;;;;;4984229;28;19948;-69
2022/05/03 08:56:55;;;;;;;;;;;;;;;;;;4962588;28;19955;-69
2022/05/03 08:59:21;;;;;;;;;;;;;;;;;;4975203;28;20000;-67
2022/05/03 09:01:48;;;;;;;;;;;;;;;;;;4974937;28;20685;-68
2022/05/03 09:04:14;;;;;;;;;;;;;;;;;;4977711;28;20293;-68
2022/05/03 09:06:41;;;;;;;;;;;;;;;;;;4975007;28;20505;-69
2022/05/03 09:09:07;;;;;;;;;;;;;;;;;;4982703;28;19968;-69
2022/05/03 09:11:34;;;;;;;;;;;;;;;;;;4978751;28;19921;-69
2022/05/03 09:14:00;;;;;;;;;;;;;;;;;;4989169;28;19918;-69
2022/05/03 09:16:26;;;;;;;;;;;;;;;;;;4974582;28;20703;-69
2022/05/03 09:18:52;;;;;;;;;;;;;;;;;;4970534;28;21006;-69
2022/05/03 09:24:03;;;;;;;;;;;;;;;;;;4978321;28;19952;-69
2022/05/03 09:26:30;;;;;;;;;;;;;;;;;;4960444;28;20564;-68
2022/05/03 09:28:56;;;;;;;;;;;;;;;;;;4979747;28;19917;-68
2022/05/03 09:31:22;;;;;;;;;;;;;;;;;;4992444;28;20493;-68
2022/05/03 09:33:48;;;;;;;;;;;;;;;;;;4990013;28;19920;-69
2022/05/03 09:36:14;;;;;;;;;;;;;;;;;;4980370;28;19914;-68
2022/05/03 09:38:40;;;;;;;;;;;;;;;;;;4978836;28;20113;-68
2022/05/03 09:41:06;;;;;;;;;;;;;;;;;;4989954;28;19913;-69
2022/05/03 09:43:32;;;;;;;;;;;;;;;;;;4984347;28;20344;-68
2022/05/03 09:45:58;;;;;;;;;;;;;;;;;;4987536;28;19913;-68
2022/05/03 09:48:24;;;;;;;;;;;;;;;;;;4982629;28;19920;-68
2022/05/03 09:50:50;;;;;;;;;;;;;;;;;;4966118;28;20367;-68
2022/05/03 09:53:16;;;;;;;;;;;;;;;;;;4987517;28;20463;-68
2022/05/03 09:55:43;;;;;;;;;;;;;;;;;;4984135;28;19913;-68
2022/05/03 09:58:09;;;;;;;;;;;;;;;;;;4986672;28;19967;-68
2022/05/03 10:00:35;;;;;;;;;;;;;;;;;;4968116;28;20783;-69
2022/05/03 10:03:01;;;;;;;;;;;;;;;;;;4985306;28;19917;-70
2022/05/03 10:05:34;;;;;;;;;;;;;;;;;;5046476;27;19924;-69
2022/05/03 10:08:00;;;;;;;;;;;;;;;;;;5047555;28;19916;-69
2022/05/03 10:10:26;;;;;;;;;;;;;;;;;;5047296;28;20346;-68
2022/05/03 10:12:53;;;;;;;;;;;;;;;;;;5041482;28;20109;-69
2022/05/03 10:20:35;;;;;;;;;;;;;;;;;;5046660;28;19912;-68
2022/05/03 10:21:00;;;;;;;;;;;;;;;;;;5025599;28;19970;-69
2022/05/03 10:23:28;;;;;;;;;;;;;;;;;;5044640;28;20329;-68
2022/05/03 10:25:54;;;;;;;;;;;;;;;;;;5054564;28;20313;-68
2022/05/03 10:28:20;;;;;;;;;;;;;;;;;;5056088;28;20439;-67
2022/05/03 10:30:45;;;;;;;;;;;;;;;;;;5046341;28;19990;-67
2022/05/03 10:33:11;;;;;;;;;;;;;;;;;;5049766;28;20014;-68
2022/05/03 10:35:37;;;;;;;;;;;;;;;;;;5046176;28;19917;-68
2022/05/03 10:38:03;;;;;;;;;;;;;;;;;;5053663;28;19916;-68
2022/05/03 10:40:30;;;;;;;;;;;;;;;;;;5049424;28;20446;-67
2022/05/03 10:42:56;;;;;;;;;;;;;;;;;;5044080;28;20323;-65
2022/05/03 10:45:22;;;;;;;;;;;;;;;;;;5049589;28;19928;-66
2022/05/03 10:47:48;;;;;;;;;;;;;;;;;;5049255;28;19917;-66
2022/05/03 10:50:16;;;;;;;;;;;;;;;;;;5047572;28;20350;-66
2022/05/03 10:52:42;;;;;;;;;;;;;;;;;;5048620;28;19921;-66
2022/05/03 10:55:08;;;;;;;;;;;;;;;;;;5050233;28;19919;-66
2022/05/03 10:57:34;;;;;;;;;;;;;;;;;;5046838;28;20204;-65
2022/05/03 11:00:00;;;;;;;;;;;;;;;;;;5055741;28;19969;-65
2022/05/03 11:02:27;;;;;;;;;;;;;;;;;;5032149;28;20708;-66
2022/05/03 11:04:53;;;;;;;;;;;;;;;;;;5047124;28;20353;-66
2022/05/03 11:07:19;;;;;;;;;;;;;;;;;;5047570;28;20326;-66
2022/05/03 11:09:45;;;;;;;;;;;;;;;;;;5046343;28;19952;-68
2022/05/03 11:12:11;;;;;;;;;;;;;;;;;;5052066;28;19921;-66
2022/05/03 11:14:37;;;;;;;;;;;;;;;;;;5024729;28;19924;-68
2022/05/03 11:17:04;;;;;;;;;;;;;;;;;;5034126;28;20062;-68
2022/05/03 11:19:30;;;;;;;;;;;;;;;;;;5032490;28;19944;-68
2022/05/03 11:21:58;;;;;;;;;;;;;;;;;;5042325;28;20365;-68
2022/05/03 11:24:24;;;;;;;;;;;;;;;;;;5031624;28;19921;-67
2022/05/03 11:26:50;;;;;;;;;;;;;;;;;;5029454;28;19924;-68
2022/05/03 11:29:16;;;;;;;;;;;;;;;;;;5029327;28;19923;-68
2022/05/03 11:31:42;;;;;;;;;;;;;;;;;;5035121;28;20378;-68
2022/05/03 11:34:08;;;;;;;;;;;;;;;;;;5031967;28;20359;-68
2022/05/03 11:36:35;;;;;;;;;;;;;;;;;;5025576;28;20158;-68
2022/05/03 11:39:04;;;;;;;;;;;;;;;;;;5030585;28;19913;-68
2022/05/03 11:41:30;;;;;;;;;;;;;;;;;;5031829;28;20184;-68
2022/05/03 11:43:56;;;;;;;;;;;;;;;;;;5022731;28;20194;-68
2022/05/03 11:46:22;;;;;;;;;;;;;;;;;;5022333;28;19913;-68
2022/05/03 11:48:47;;;;;;;;;;;;;;;;;;5023808;28;19917;-68
2022/05/03 11:56:43;;;;;;;;;;;;;;;;;;5029500;28;19970;-69
2022/05/03 11:59:09;;;;;;;;;;;;;;;;;;5033786;28;20273;-67
2022/05/03 12:01:35;;;;;;;;;;;;;;;;;;5012253;28;19924;-67
2022/05/03 12:04:02;;;;;;;;;;;;;;;;;;5034976;28;19929;-68
2022/05/03 12:06:28;;;;;;;;;;;;;;;;;;5029139;28;20370;-70
2022/05/03 12:08:54;;;;;;;;;;;;;;;;;;5028833;28;19924;-69
2022/05/03 12:11:21;;;;;;;;;;;;;;;;;;5033668;28;20424;-67
2022/05/03 12:13:47;;;;;;;;;;;;;;;;;;5015767;28;19944;-66
2022/05/03 12:16:16;;;;;;;;;;;;;;;;;;5035471;28;20240;-69
2022/05/03 12:18:42;;;;;;;;;;;;;;;;;;5016437;28;19927;-68
2022/05/03 12:21:08;;;;;;;;;;;;;;;;;;5043011;28;19916;-67
2022/05/03 12:23:37;;;;;;;;;;;;;;;;;;5029589;28;19985;-68
2022/05/03 12:26:03;;;;;;;;;;;;;;;;;;5039679;28;19987;-69
2022/05/03 12:28:29;;;;;;;;;;;;;;;;;;5035298;28;19916;-71
2022/05/03 12:30:55;;;;;;;;;;;;;;;;;;5032837;28;20709;-65
2022/05/03 12:33:21;;;;;;;;;;;;;;;;;;5034069;28;19960;-66
2022/05/03 12:35:48;;;;;;;;;;;;;;;;;;5033694;28;20020;-65
2022/05/03 12:38:14;;;;;;;;;;;;;;;;;;5016157;28;20048;-66
2022/05/03 12:40:42;;;;;;;;;;;;;;;;;;5010887;28;20027;-65
2022/05/03 12:43:08;;;;;;;;;;;;;;;;;;5034676;28;19924;-65
2022/05/03 12:45:33;;;;;;;;;;;;;;;;;;5025425;28;19920;-65
2022/05/03 12:48:03;;;;;;;;;;;;;;;;;;5031779;28;20059;-65
2022/05/03 12:50:29;;;;;;;;;;;;;;;;;;5032176;28;19921;-65
2022/05/03 12:52:55;;;;;;;;;;;;;;;;;;5031143;28;19939;-65
2022/05/03 12:55:21;;;;;;;;;;;;;;;;;;5032920;28;19924;-65
2022/05/03 13:00:33;;;;;;;;;;;;;;;;;;5034659;28;19923;-66
2022/05/03 13:03:02;;;;;;;;;;;;;;;;;;5028177;28;19916;-65
2022/05/03 13:05:28;;;;;;;;;;;;;;;;;;5019128;28;20662;-65
2022/05/03 13:07:54;;;;;;;;;;;;;;;;;;5024110;28;20373;-66
2022/05/03 13:10:20;;;;;;;;;;;;;;;;;;5026406;28;20339;-65
2022/05/03 13:12:46;;;;;;;;;;;;;;;;;;5020777;28;20039;-66
2022/05/03 13:15:12;;;;;;;;;;;;;;;;;;5029433;28;19971;-65
2022/05/03 13:17:38;;;;;;;;;;;;;;;;;;5024293;28;19916;-65
2022/05/03 13:20:04;;;;;;;;;;;;;;;;;;5027666;28;22500;-64
2022/05/03 13:22:31;;;;;;;;;;;;;;;;;;5026943;28;19916;-64
2022/05/03 13:24:56;;;;;;;;;;;;;;;;;;5011162;28;19975;-65
2022/05/03 13:27:23;;;;;;;;;;;;;;;;;;5027248;28;20357;-65
2022/05/03 13:29:49;;;;;;;;;;;;;;;;;;5022947;28;19912;-65
2022/05/03 13:32:14;;;;;;;;;;;;;;;;;;5029530;28;20264;-65
2022/05/03 13:34:40;;;;;;;;;;;;;;;;;;5026335;28;19920;-64
2022/05/03 13:42:36;;;;;;;;;;;;;;;;;;5021644;28;20381;-64
2022/05/03 13:45:02;;;;;;;;;;;;;;;;;;5026911;28;19921;-64
2022/05/03 13:47:30;;;;;;;;;;;;;;;;;;5011611;28;19916;-64
2022/05/03 13:49:56;;;;;;;;;;;;;;;;;;5022480;28;20183;-64
2022/05/03 13:52:22;;;;;;;;;;;;;;;;;;5033152;28;20291;-65
2022/05/03 13:54:48;;;;;;;;;;;;;;;;;;5023196;28;19963;-65
2022/05/03 13:57:14;;;;;;;;;;;;;;;;;;5032211;28;19994;-65
2022/05/03 13:59:40;;;;;;;;;;;;;;;;;;5029630;28;19921;-65
2022/05/03 14:02:07;;;;;;;;;;;;;;;;;;5029633;28;20324;-65
2022/05/03 14:04:33;;;;;;;;;;;;;;;;;;5005462;28;19929;-65
2022/05/03 14:06:59;;;;;;;;;;;;;;;;;;5010413;28;19924;-65
2022/05/03 14:09:27;;;;;;;;;;;;;;;;;;5008725;28;20014;-64
2022/05/03 14:11:53;;;;;;;;;;;;;;;;;;5010713;28;19917;-65
2022/05/03 14:14:19;;;;;;;;;;;;;;;;;;5018294;28;19932;-65
2022/05/03 14:16:45;;;;;;;;;;;;;;;;;;5008474;28;19924;-65
2022/05/03 14:19:11;;;;;;;;;;;;;;;;;;5010091;28;20472;-65
2022/05/03 14:21:38;;;;;;;;;;;;;;;;;;5010593;28;20055;-64
2022/05/03 14:24:04;;;;;;;;;;;;;;;;;;5018114;28;19921;-65
2022/05/03 14:26:30;;;;;;;;;;;;;;;;;;5020156;28;19979;-65
2022/05/03 14:28:56;;;;;;;;;;;;;;;;;;5017074;28;19917;-64
2022/05/03 14:31:24;;;;;;;;;;;;;;;;;;5015892;28;19917;-65
2022/05/03 14:33:50;;;;;;;;;;;;;;;;;;5012766;28;20436;-65
2022/05/03 14:36:17;;;;;;;;;;;;;;;;;;5010539;28;19917;-68
2022/05/03 14:38:43;;;;;;;;;;;;;;;;;;5011943;28;19924;-65
2022/05/03 14:41:09;;;;;;;;;;;;;;;;;;5015708;28;19916;-65
2022/05/03 14:43:34;;;;;;;;;;;;;;;;;;5010801;28;20164;-64
2022/05/03 14:46:00;;;;;;;;;;;;;;;;;;5012270;28;19918;-65
2022/05/03 14:48:26;;;;;;;;;;;;;;;;;;5012240;28;20622;-65
2022/05/03 14:50:52;;;;;;;;;;;;;;;;;;5011603;28;20405;-65
2022/05/03 14:53:19;;;;;;;;;;;;;;;;;;5016832;28;20040;-67
2022/05/03 15:02:52;;;;;;;;;;;;;;;;;;5014456;28;19917;-66
2022/05/03 15:04:00;;;;;;;;;;;;;;;;;;5023595;28;20483;-69
2022/05/03 15:06:26;;;;;;;;;;;;;;;;;;5037807;28;20650;-68
2022/05/03 15:08:53;;;;;;;;;;;;;;;;;;5015686;28;19928;-68
2022/05/03 15:11:19;;;;;;;;;;;;;;;;;;5018205;28;19916;-68
2022/05/03 15:13:45;;;;;;;;;;;;;;;;;;5034511;28;20509;-68
2022/05/03 15:16:11;;;;;;;;;;;;;;;;;;5045207;28;20681;-68
2022/05/03 15:18:39;;;;;;;;;;;;;;;;;;5029003;28;20296;-68
2022/05/03 15:21:05;;;;;;;;;;;;;;;;;;5023530;28;19955;-68
2022/05/03 15:26:15;;;;;;;;;;;;;;;;;;5044546;28;20350;-68
2022/05/03 15:28:41;;;;;;;;;;;;;;;;;;5035240;28;19916;-69
2022/05/03 15:31:07;;;;;;;;;;;;;;;;;;5039375;28;19969;-68
2022/05/03 15:33:33;;;;;;;;;;;;;;;;;;5028166;28;19920;-67
2022/05/03 15:35:59;;;;;;;;;;;;;;;;;;5013313;28;20324;-67
2022/05/03 15:38:25;;;;;;;;;;;;;;;;;;5033021;28;20355;-67
2022/05/03 15:40:51;;;;;;;;;;;;;;;;;;5032181;28;21181;-67
2022/05/03 15:43:19;;;;;;;;;;;;;;;;;;5037026;28;20169;-67
2022/05/03 15:45:45;;;;;;;;;;;;;;;;;;5028137;28;19975;-67
2022/05/03 15:48:11;;;;;;;;;;;;;;;;;;5034154;28;19917;-69
2022/05/03 15:50:37;;;;;;;;;;;;;;;;;;5017568;28;19956;-67
2022/05/03 15:53:03;;;;;;;;;;;;;;;;;;5029108;28;20532;-67
2022/05/03 15:55:29;;;;;;;;;;;;;;;;;;5033080;28;19967;-67
2022/05/03 15:57:57;;;;;;;;;;;;;;;;;;5028190;28;20370;-66
2022/05/03 16:00:23;;;;;;;;;;;;;;;;;;5022971;28;19990;-68
2022/05/03 16:02:50;;;;;;;;;;;;;;;;;;5034529;28;20413;-65
2022/05/03 16:05:21;;;;;;;;;;;;;;;;;;5014043;28;20062;-68
2022/05/03 16:07:47;;;;;;;;;;;;;;;;;;5009775;28;19925;-69
2022/05/03 16:10:14;;;;;;;;;;;;;;;;;;5014550;28;19917;-68
2022/05/03 16:12:40;;;;;;;;;;;;;;;;;;5009808;28;19924;-67
2022/05/03 16:15:13;;;;;;;;;;;;;;;;;;5018722;28;20290;-68
2022/05/03 16:17:39;;;;;;;;;;;;;;;;;;5022413;28;19987;-68
2022/05/03 16:20:05;;;;;;;;;;;;;;;;;;5020521;28;20548;-68
2022/05/03 16:22:31;;;;;;;;;;;;;;;;;;5021806;28;19983;-68
2022/05/03 16:24:57;;;;;;;;;;;;;;;;;;5017644;28;19971;-68
2022/05/03 16:27:23;;;;;;;;;;;;;;;;;;5012700;28;20355;-68
2022/05/03 16:29:50;;;;;;;;;;;;;;;;;;5008364;28;20382;-68
2022/05/03 16:32:16;;;;;;;;;;;;;;;;;;5044737;28;19917;-68
2022/05/03 16:34:42;;;;;;;;;;;;;;;;;;5011272;28;20363;-68
2022/05/03 16:42:38;;;;;;;;;;;;;;;;;;5004524;28;20037;-68
2022/05/03 16:45:04;;;;;;;;;;;;;;;;;;5005378;28;19928;-68
2022/05/03 16:47:30;;;;;;;;;;;;;;;;;;5011646;28;20284;-70
2022/05/03 16:50:03;;;;;;;;;;;;;;;;;;5041034;28;19943;-68
2022/05/03 16:52:29;;;;;;;;;;;;;;;;;;5009878;28;19917;-68
2022/05/03 16:54:55;;;;;;;;;;;;;;;;;;5001739;28;19927;-67
2022/05/03 16:57:21;;;;;;;;;;;;;;;;;;5010005;28;20294;-67
2022/05/03 16:59:50;;;;;;;;;;;;;;;;;;5009682;28;19948;-68
2022/05/03 17:02:16;;;;;;;;;;;;;;;;;;5038739;28;20040;-67
2022/05/03 17:04:44;;;;;;;;;;;;;;;;;;5012295;28;20427;-68
2022/05/03 17:07:10;;;;;;;;;;;;;;;;;;5012604;28;20358;-67
2022/05/03 17:09:36;;;;;;;;;;;;;;;;;;5024686;28;19928;-67
2022/05/03 17:12:02;;;;;;;;;;;;;;;;;;5006151;28;20337;-68
2022/05/03 17:14:28;;;;;;;;;;;;;;;;;;5026308;28;19924;-67
2022/05/03 17:16:54;;;;;;;;;;;;;;;;;;5014754;28;19925;-67
2022/05/03 17:19:20;;;;;;;;;;;;;;;;;;5037894;28;20006;-67
2022/05/03 17:21:46;;;;;;;;;;;;;;;;;;5007343;28;20003;-66
2022/05/03 17:24:12;;;;;;;;;;;;;;;;;;5027980;28;19951;-67
2022/05/03 17:26:38;;;;;;;;;;;;;;;;;;5040844;28;20263;-69
2022/05/03 17:29:05;;;;;;;;;;;;;;;;;;5028185;28;19916;-69
2022/05/03 17:31:31;;;;;;;;;;;;;;;;;;5016997;28;19960;-68